createdAt,value
2023-05-12T00:01:55.430Z,17.02
2023-05-12T00:04:22.717Z,16.79
2023-05-12T00:06:49.297Z,16.80
2023-05-12T00:09:16.122Z,16.69
2023-05-12T00:11:42.664Z,16.46
2023-05-12T00:14:09.352Z,16.48
2023-05-12T00:16:36.028Z,16.68
2023-05-12T00:19:02.787Z,16.83
2023-05-12T00:21:29.442Z,16.85
2023-05-12T00:23:56.391Z,16.82
2023-05-12T00:26:22.889Z,16.93
2023-05-12T00:28:49.449Z,17.16
2023-05-12T00:31:16.418Z,17.07
2023-05-12T00:33:43.224Z,17.18
2023-05-12T00:36:09.907Z,17.03
2023-05-12T00:38:37.400Z,16.89
2023-05-12T00:41:04.708Z,17.10
2023-05-12T00:43:31.896Z,16.76
2023-05-12T00:46:00.270Z,16.96
2023-05-12T00:48:27.033Z,16.53
2023-05-12T00:50:54.691Z,16.32
2023-05-12T00:53:21.192Z,16.33
2023-05-12T00:55:47.844Z,16.60
2023-05-12T00:58:14.578Z,16.69
2023-05-12T01:00:41.117Z,16.84
2023-05-12T01:03:08.405Z,17.18
2023-05-12T01:05:51.072Z,17.16
2023-05-12T01:08:17.913Z,17.48
2023-05-12T01:10:44.999Z,17.47
2023-05-12T01:13:11.600Z,17.74
2023-05-12T01:15:40.678Z,17.77
2023-05-12T01:18:07.407Z,17.52
2023-05-12T01:20:34.659Z,17.68
2023-05-12T01:23:02.229Z,17.64
2023-05-12T01:25:31.486Z,17.38
2023-05-12T01:27:57.956Z,17.25
2023-05-12T01:30:25.068Z,16.78
2023-05-12T01:32:52.578Z,16.54
2023-05-12T01:35:19.148Z,17.12
2023-05-12T01:37:46.490Z,16.82
2023-05-12T01:40:13.225Z,16.71
2023-05-12T01:42:41.579Z,16.54
2023-05-12T01:45:09.248Z,16.68
2023-05-12T01:47:35.825Z,16.57
2023-05-12T01:50:02.346Z,16.18
2023-05-12T01:52:29.004Z,16.34
2023-05-12T01:54:55.463Z,16.60
2023-05-12T01:57:22.102Z,16.80
2023-05-12T01:59:49.285Z,16.89
2023-05-12T02:02:15.949Z,16.79
2023-05-12T02:04:43.189Z,16.80
2023-05-12T02:07:10.838Z,16.66
2023-05-12T02:09:37.404Z,17.05
2023-05-12T02:12:05.419Z,16.92
2023-05-12T02:14:33.033Z,16.74
2023-05-12T02:17:00.419Z,17.34
2023-05-12T02:19:27.475Z,17.43
2023-05-12T02:21:53.941Z,17.15
2023-05-12T02:24:21.308Z,17.42
2023-05-12T02:26:47.844Z,17.56
2023-05-12T02:29:14.326Z,16.73
2023-05-12T02:31:41.180Z,17.39
2023-05-12T02:34:07.737Z,17.18
2023-05-12T02:36:34.513Z,17.03
2023-05-12T02:39:01.325Z,17.06
2023-05-12T02:41:27.940Z,16.70
2023-05-12T02:43:54.908Z,16.93
2023-05-12T02:46:22.054Z,17.19
2023-05-12T02:48:48.709Z,17.11
2023-05-12T02:51:15.303Z,17.10
2023-05-12T02:53:42.878Z,17.08
2023-05-12T02:56:09.529Z,17.13
2023-05-12T02:58:36.569Z,17.04
2023-05-12T03:01:09.950Z,16.87
2023-05-12T03:03:38.297Z,17.06
2023-05-12T03:06:06.059Z,17.03
2023-05-12T03:08:33.061Z,17.26
2023-05-12T03:10:59.513Z,17.22
2023-05-12T03:13:26.616Z,17.27
2023-05-12T03:15:53.259Z,17.06
2023-05-12T03:18:20.021Z,17.07
2023-05-12T03:20:47.284Z,16.99
2023-05-12T03:23:13.936Z,16.69
2023-05-12T03:25:40.396Z,16.70
2023-05-12T03:28:07.847Z,16.79
2023-05-12T03:30:34.524Z,16.92
2023-05-12T03:33:01.072Z,16.64
2023-05-12T03:35:27.797Z,17.10
2023-05-12T03:37:54.315Z,16.96
2023-05-12T03:40:21.189Z,17.17
2023-05-12T03:42:48.011Z,16.99
2023-05-12T03:45:14.512Z,17.03
2023-05-12T03:47:41.479Z,17.17
2023-05-12T03:50:08.387Z,17.17
2023-05-12T03:52:35.152Z,16.39
2023-05-12T03:55:02.897Z,17.19
2023-05-12T03:57:29.392Z,16.61
2023-05-12T03:59:56.019Z,16.64
2023-05-12T04:02:22.944Z,16.53
2023-05-12T04:04:49.593Z,16.83
2023-05-12T04:07:16.572Z,16.79
2023-05-12T04:09:44.085Z,17.30
2023-05-12T04:12:10.939Z,17.13
2023-05-12T04:14:42.855Z,16.62
2023-05-12T04:17:10.810Z,17.30
2023-05-12T04:19:37.356Z,17.10
2023-05-12T04:22:03.998Z,17.15
2023-05-12T04:24:31.308Z,17.06
2023-05-12T04:26:58.035Z,17.26
2023-05-12T04:29:24.713Z,17.11
2023-05-12T04:31:51.334Z,17.19
2023-05-12T04:34:18.068Z,17.29
2023-05-12T04:36:44.852Z,17.48
2023-05-12T04:39:11.331Z,17.35
2023-05-12T04:41:38.481Z,17.28
2023-05-12T04:44:05.350Z,17.16
2023-05-12T04:46:31.923Z,17.37
2023-05-12T04:48:58.642Z,17.59
2023-05-12T04:51:25.230Z,17.21
2023-05-12T04:53:51.974Z,17.38
2023-05-12T04:56:18.837Z,17.55
2023-05-12T04:58:45.413Z,17.52
2023-05-12T05:01:13.651Z,17.67
2023-05-12T05:03:40.873Z,17.72
2023-05-12T05:06:08.021Z,17.34
2023-05-12T05:08:34.962Z,17.58
2023-05-12T05:11:01.516Z,17.27
2023-05-12T05:13:27.991Z,17.83
2023-05-12T05:15:55.460Z,17.78
2023-05-12T05:18:24.260Z,18.02
2023-05-12T05:20:57.959Z,18.00
2023-05-12T05:23:26.023Z,18.15
2023-05-12T05:25:52.875Z,17.96
2023-05-12T05:28:19.812Z,18.04
2023-05-12T05:30:46.309Z,18.31
2023-05-12T05:33:13.278Z,18.20
2023-05-12T05:35:42.503Z,17.91
2023-05-12T05:38:09.319Z,18.02
2023-05-12T05:40:49.241Z,18.07
2023-05-12T05:43:19.964Z,18.09
2023-05-12T05:45:46.468Z,18.24
2023-05-12T05:48:13.528Z,17.64
2023-05-12T05:50:40.098Z,17.78
2023-05-12T05:53:06.797Z,17.86
2023-05-12T05:55:33.386Z,17.45
2023-05-12T05:58:00.051Z,17.73
2023-05-12T06:00:27.293Z,17.62
2023-05-12T06:02:54.104Z,17.94
2023-05-12T06:05:20.879Z,17.52
2023-05-12T06:07:47.658Z,17.74
2023-05-12T06:10:14.202Z,18.08
2023-05-12T06:12:41.122Z,18.45
2023-05-12T06:15:08.604Z,18.03
2023-05-12T06:17:35.271Z,18.01
2023-05-12T06:20:04.928Z,17.58
2023-05-12T06:22:31.642Z,17.81
2023-05-12T06:24:58.372Z,17.80
2023-05-12T06:27:25.224Z,17.62
2023-05-12T06:29:52.794Z,17.77
2023-05-12T06:32:19.454Z,17.83
2023-05-12T06:34:46.166Z,18.06
2023-05-12T06:37:12.714Z,18.05
2023-05-12T06:39:39.171Z,18.09
2023-05-12T06:42:06.493Z,18.52
2023-05-12T06:44:33.053Z,17.97
2023-05-12T06:46:59.747Z,17.83
2023-05-12T06:49:26.423Z,17.65
2023-05-12T06:51:53.200Z,18.23
2023-05-12T06:54:19.666Z,17.96
2023-05-12T06:56:46.537Z,18.37
2023-05-12T06:59:14.091Z,18.25
2023-05-12T07:01:42.907Z,18.23
2023-05-12T07:04:09.733Z,18.40
2023-05-12T07:06:36.368Z,18.40
2023-05-12T07:09:02.973Z,18.80
2023-05-12T07:11:30.351Z,18.34
2023-05-12T07:13:56.891Z,18.72
2023-05-12T07:16:23.485Z,18.82
2023-05-12T07:18:50.449Z,18.32
2023-05-12T07:21:17.080Z,18.70
2023-05-12T07:23:44.003Z,18.83
2023-05-12T07:26:10.562Z,18.74
2023-05-12T07:28:37.219Z,19.35
2023-05-12T07:31:05.060Z,18.83
2023-05-12T07:33:31.796Z,19.21
2023-05-12T07:35:58.324Z,19.44
2023-05-12T07:38:25.344Z,19.39
2023-05-12T07:40:51.873Z,19.69
2023-05-12T07:43:18.917Z,20.06
2023-05-12T07:45:46.102Z,20.40
2023-05-12T07:48:13.047Z,20.32
2023-05-12T07:50:39.948Z,20.21
2023-05-12T07:53:06.937Z,20.55
2023-05-12T07:55:33.925Z,20.65
2023-05-12T07:58:01.154Z,20.65
2023-05-12T08:00:28.091Z,20.82
2023-05-12T08:02:55.507Z,20.86
2023-05-12T08:05:22.421Z,21.09
2023-05-12T08:07:49.491Z,21.72
2023-05-12T08:10:17.140Z,22.21
2023-05-12T08:12:44.024Z,22.13
2023-05-12T08:15:10.640Z,22.49
2023-05-12T08:17:37.126Z,22.42
2023-05-12T08:20:05.121Z,22.53
2023-05-12T08:22:32.616Z,22.60
2023-05-12T08:24:59.736Z,23.19
2023-05-12T08:27:26.412Z,21.98
2023-05-12T08:29:52.926Z,22.73
2023-05-12T08:32:19.703Z,22.56
2023-05-12T08:34:46.312Z,23.23
2023-05-12T08:37:12.917Z,23.33
2023-05-12T08:39:40.461Z,23.44
2023-05-12T08:42:42.990Z,23.67
2023-05-12T08:45:11.141Z,22.07
2023-05-12T08:47:38.232Z,22.19
2023-05-12T08:50:05.921Z,21.63
2023-05-12T08:52:34.253Z,21.93
2023-05-12T08:55:03.295Z,22.56
2023-05-12T08:57:31.183Z,21.83
2023-05-12T09:00:00.053Z,21.40
2023-05-12T09:02:30.911Z,22.03
2023-05-12T09:05:04.801Z,21.70
2023-05-12T09:07:32.574Z,22.08
2023-05-12T09:10:00.952Z,22.89
2023-05-12T09:12:31.724Z,22.54
2023-05-12T09:15:04.492Z,23.15
2023-05-12T09:17:31.118Z,23.89
2023-05-12T09:19:57.678Z,24.16
2023-05-12T09:22:31.768Z,24.94
2023-05-12T09:24:58.634Z,25.90
2023-05-12T09:27:28.851Z,26.59
2023-05-12T09:29:59.731Z,26.74
2023-05-12T09:32:33.526Z,25.82
2023-05-12T09:35:12.617Z,26.07
2023-05-12T09:37:42.748Z,25.54
2023-05-12T09:40:11.554Z,26.17
2023-05-12T09:42:38.362Z,25.94
2023-05-12T09:45:06.324Z,25.99
2023-05-12T09:47:37.581Z,26.94
2023-05-12T09:50:05.722Z,27.38
2023-05-12T09:52:37.747Z,27.53
2023-05-12T09:55:12.710Z,28.30
2023-05-12T09:57:41.287Z,27.95
2023-05-12T10:00:30.190Z,26.82
2023-05-12T10:03:01.559Z,26.61
2023-05-12T10:05:28.681Z,27.51
2023-05-12T10:07:57.794Z,28.45
2023-05-12T10:10:26.404Z,28.71
2023-05-12T10:12:52.971Z,28.45
2023-05-12T10:15:20.526Z,29.50
2023-05-12T10:17:50.857Z,30.21
2023-05-12T10:20:19.299Z,29.79
2023-05-12T10:22:46.702Z,29.60
2023-05-12T10:25:13.871Z,31.67
2023-05-12T10:27:41.561Z,33.12
2023-05-12T10:30:08.965Z,33.53
2023-05-12T10:32:36.140Z,33.97
2023-05-12T10:35:10.715Z,33.80
2023-05-12T10:37:37.717Z,35.12
2023-05-12T10:40:05.080Z,34.72
2023-05-12T10:42:43.186Z,37.78
2023-05-12T10:45:17.651Z,38.26
2023-05-12T10:47:47.770Z,40.01
2023-05-12T10:50:14.695Z,41.63
2023-05-12T10:52:53.693Z,43.68
2023-05-12T10:55:34.063Z,42.33
2023-05-12T10:58:09.794Z,42.14
2023-05-12T11:00:55.125Z,41.00
2023-05-12T11:03:26.077Z,42.21
2023-05-12T11:06:05.390Z,44.28
2023-05-12T11:08:35.633Z,43.86
2023-05-12T11:11:03.412Z,45.00
2023-05-12T11:13:29.959Z,47.33
2023-05-12T11:15:57.170Z,45.10
2023-05-12T11:18:24.170Z,41.74
2023-05-12T11:20:51.459Z,43.19
2023-05-12T11:23:29.043Z,44.05
2023-05-12T11:25:56.277Z,45.42
2023-05-12T11:28:23.037Z,44.57
2023-05-12T11:30:54.914Z,44.39
2023-05-12T11:33:22.884Z,46.03
2023-05-12T11:35:50.445Z,45.25
2023-05-12T11:38:18.606Z,43.33
2023-05-12T11:40:45.529Z,42.98
2023-05-12T11:43:12.886Z,38.38
2023-05-12T11:45:39.338Z,37.82
2023-05-12T11:48:11.511Z,37.81
2023-05-12T11:50:43.194Z,37.66
2023-05-12T11:53:12.206Z,35.83
2023-05-12T11:55:51.279Z,35.54
2023-05-12T11:58:26.876Z,34.67
2023-05-12T12:00:54.566Z,34.82
2023-05-12T12:03:21.514Z,36.81
2023-05-12T12:06:02.892Z,35.21
2023-05-12T12:08:29.803Z,34.31
2023-05-12T12:10:56.381Z,34.18
2023-05-12T12:13:24.309Z,33.16
2023-05-12T12:15:51.034Z,33.22
2023-05-12T12:18:18.907Z,32.22
2023-05-12T12:20:47.482Z,30.87
2023-05-12T12:23:13.956Z,30.28
2023-05-12T12:25:40.722Z,29.79
2023-05-12T12:28:08.203Z,28.88
2023-05-12T12:30:34.790Z,28.37
2023-05-12T12:33:01.463Z,26.93
2023-05-12T12:35:28.004Z,25.64
2023-05-12T12:37:55.408Z,24.40
2023-05-12T12:40:22.043Z,24.98
2023-05-12T12:42:48.593Z,25.42
2023-05-12T12:45:16.179Z,25.66
2023-05-12T12:47:43.454Z,25.40
2023-05-12T12:50:10.886Z,24.73
2023-05-12T12:52:38.351Z,25.42
2023-05-12T12:55:06.672Z,25.39
2023-05-12T12:57:33.492Z,26.25
2023-05-12T13:00:00.093Z,25.87
2023-05-12T13:02:27.104Z,27.10
2023-05-12T13:04:53.794Z,26.89
2023-05-12T13:07:20.897Z,27.09
2023-05-12T13:09:47.833Z,27.70
2023-05-12T13:12:14.684Z,27.37
2023-05-12T13:14:41.657Z,27.55
2023-05-12T13:17:08.392Z,27.24
2023-05-12T13:19:37.210Z,27.18
2023-05-12T13:22:05.256Z,26.36
2023-05-12T13:24:31.739Z,26.85
2023-05-12T13:26:58.473Z,26.53
2023-05-12T13:29:25.291Z,26.85
2023-05-12T13:31:51.844Z,26.81
2023-05-12T13:34:18.554Z,26.83
2023-05-12T13:36:45.145Z,26.22
2023-05-12T13:39:12.679Z,27.11
2023-05-12T13:41:39.538Z,27.09
2023-05-12T13:44:06.167Z,27.65
2023-05-12T13:46:32.861Z,26.78
2023-05-12T13:48:59.824Z,26.53
2023-05-12T13:51:26.711Z,26.27
2023-05-12T13:53:53.530Z,26.23
2023-05-12T13:56:21.054Z,26.42
2023-05-12T13:58:47.786Z,25.75
2023-05-12T14:01:14.896Z,26.18
2023-05-12T14:03:42.665Z,26.90
2023-05-12T14:06:09.349Z,26.58
2023-05-12T14:08:36.420Z,26.87
2023-05-12T14:11:03.219Z,25.92
2023-05-12T14:13:30.969Z,25.22
2023-05-12T14:15:57.724Z,25.25
2023-05-12T14:18:25.040Z,25.34
2023-05-12T14:20:52.340Z,25.39
2023-05-12T14:23:18.826Z,26.17
2023-05-12T14:25:45.633Z,25.75
2023-05-12T14:28:12.457Z,25.37
2023-05-12T14:30:39.108Z,24.59
2023-05-12T14:33:05.646Z,24.88
2023-05-12T14:35:32.536Z,24.39
2023-05-12T14:37:59.031Z,24.29
2023-05-12T14:40:27.210Z,24.26
2023-05-12T14:42:55.116Z,24.81
2023-05-12T14:45:22.038Z,24.58
2023-05-12T14:47:49.190Z,24.39
2023-05-12T14:50:15.962Z,24.92
2023-05-12T14:52:42.440Z,25.06
2023-05-12T14:55:13.817Z,24.95
2023-05-12T14:57:44.419Z,24.39
2023-05-12T15:00:13.018Z,24.87
2023-05-12T15:02:40.426Z,23.99
2023-05-12T15:05:08.405Z,24.08
2023-05-12T15:07:35.304Z,23.66
2023-05-12T15:10:01.912Z,23.89
2023-05-12T15:12:28.487Z,24.01
2023-05-12T15:14:56.346Z,23.73
2023-05-12T15:17:23.179Z,24.27
2023-05-12T15:19:50.229Z,24.40
2023-05-12T15:22:16.708Z,23.56
2023-05-12T15:24:43.357Z,24.09
2023-05-12T15:27:10.046Z,24.36
2023-05-12T15:29:40.739Z,24.29
2023-05-12T15:32:07.984Z,24.76
2023-05-12T15:34:35.062Z,24.26
2023-05-12T15:37:01.963Z,23.82
2023-05-12T15:39:28.758Z,23.96
2023-05-12T15:41:55.377Z,24.16
2023-05-12T15:44:21.907Z,23.91
2023-05-12T15:46:48.685Z,24.24
2023-05-12T15:49:15.243Z,24.16
2023-05-12T15:51:41.870Z,24.28
2023-05-12T15:54:09.719Z,24.60
2023-05-12T15:56:38.219Z,24.35
2023-05-12T15:59:07.785Z,24.55
2023-05-12T16:01:34.594Z,24.63
2023-05-12T16:04:01.341Z,24.34
2023-05-12T16:06:28.593Z,24.27
2023-05-12T16:08:55.107Z,24.45
2023-05-12T16:11:22.282Z,24.69
2023-05-12T16:13:52.090Z,24.63
2023-05-12T16:16:19.475Z,24.79
2023-05-12T16:18:46.130Z,25.11
2023-05-12T16:21:13.694Z,25.34
2023-05-12T16:23:40.334Z,24.47
2023-05-12T16:26:06.937Z,24.95
2023-05-12T16:28:34.615Z,24.86
2023-05-12T16:31:02.105Z,25.15
2023-05-12T16:33:29.824Z,25.44
2023-05-12T16:35:56.472Z,25.37
2023-05-12T16:38:23.041Z,25.39
2023-05-12T16:40:49.934Z,24.73
2023-05-12T16:43:17.044Z,25.01
2023-05-12T16:45:43.607Z,24.72
2023-05-12T16:48:10.375Z,24.37
2023-05-12T16:50:37.171Z,24.65
2023-05-12T16:53:03.695Z,24.33
2023-05-12T16:55:30.863Z,24.45
2023-05-12T16:57:57.382Z,24.49
2023-05-12T17:00:23.912Z,23.94
2023-05-12T17:02:51.040Z,24.78
2023-05-12T17:05:17.714Z,24.95
2023-05-12T17:07:44.269Z,25.22
2023-05-12T17:10:11.732Z,25.03
2023-05-12T17:12:38.393Z,24.98
2023-05-12T17:15:08.551Z,24.72
2023-05-12T17:17:36.219Z,24.58
2023-05-12T17:20:02.915Z,24.38
2023-05-12T17:22:30.942Z,24.55
2023-05-12T17:24:57.526Z,24.57
2023-05-12T17:27:24.002Z,24.00
2023-05-12T17:29:50.615Z,24.45
2023-05-12T17:32:17.136Z,24.40
2023-05-12T17:34:43.685Z,24.60
2023-05-12T17:37:10.585Z,24.62
2023-05-12T17:39:40.412Z,24.33
2023-05-12T17:42:07.317Z,24.60
2023-05-12T17:44:35.032Z,24.74
2023-05-12T17:47:01.900Z,24.51
2023-05-12T17:49:28.371Z,24.90
2023-05-12T17:51:55.551Z,24.42
2023-05-12T17:54:22.104Z,24.78
2023-05-12T17:56:48.767Z,24.86
2023-05-12T17:59:15.469Z,24.71
2023-05-12T18:01:42.021Z,24.84
2023-05-12T18:04:09.164Z,24.75
2023-05-12T18:06:35.701Z,24.48
2023-05-12T18:09:02.785Z,24.73
2023-05-12T18:11:29.401Z,24.64
2023-05-12T18:13:56.047Z,24.41
2023-05-12T18:16:29.182Z,24.04
2023-05-12T18:18:56.321Z,24.23
2023-05-12T18:21:22.999Z,24.13
2023-05-12T18:23:49.924Z,24.08
2023-05-12T18:26:16.542Z,23.75
2023-05-12T18:28:43.030Z,24.04
2023-05-12T18:31:15.589Z,23.72
2023-05-12T18:33:43.088Z,23.49
2023-05-12T18:36:10.309Z,23.45
2023-05-12T18:38:37.540Z,23.56
2023-05-12T18:41:04.006Z,23.43
2023-05-12T18:43:30.718Z,23.36
2023-05-12T18:45:57.309Z,23.17
2023-05-12T18:48:23.948Z,23.21
2023-05-12T18:50:51.695Z,22.99
2023-05-12T18:53:18.295Z,22.82
2023-05-12T18:55:44.920Z,22.84
2023-05-12T18:58:11.776Z,22.31
2023-05-12T19:00:38.430Z,22.31
2023-05-12T19:03:05.416Z,21.80
2023-05-12T19:05:32.515Z,21.48
2023-05-12T19:07:59.045Z,21.32
2023-05-12T19:10:27.044Z,21.19
2023-05-12T19:12:54.175Z,21.11
2023-05-12T19:15:21.857Z,21.02
2023-05-12T19:17:49.459Z,20.53
2023-05-12T19:20:16.250Z,20.66
2023-05-12T19:22:43.955Z,20.80
2023-05-12T19:25:10.922Z,20.59
2023-05-12T19:27:37.450Z,20.69
2023-05-12T19:30:07.567Z,20.75
2023-05-12T19:32:34.142Z,20.46
2023-05-12T19:35:01.093Z,20.31
2023-05-12T19:37:27.788Z,20.54
2023-05-12T19:39:54.379Z,20.20
2023-05-12T19:42:21.532Z,20.44
2023-05-12T19:44:48.020Z,20.50
2023-05-12T19:47:14.585Z,20.10
2023-05-12T19:49:41.688Z,20.28
2023-05-12T19:52:08.264Z,20.28
2023-05-12T19:54:35.070Z,19.82
2023-05-12T19:57:02.084Z,20.09
2023-05-12T19:59:28.615Z,19.96
2023-05-12T20:01:55.631Z,19.78
2023-05-12T20:04:23.061Z,19.94
2023-05-12T20:06:49.561Z,20.02
2023-05-12T20:09:16.617Z,19.80
2023-05-12T20:11:43.185Z,19.90
2023-05-12T20:14:11.665Z,19.81
2023-05-12T20:16:38.324Z,19.77
2023-05-12T20:19:05.450Z,19.84
2023-05-12T20:21:32.758Z,19.39
2023-05-12T20:23:59.300Z,19.64
2023-05-12T20:26:27.365Z,19.35
2023-05-12T20:28:54.780Z,19.37
2023-05-12T20:31:22.260Z,19.21
2023-05-12T20:33:49.140Z,19.18
2023-05-12T20:36:15.854Z,19.41
2023-05-12T20:38:42.474Z,19.19
2023-05-12T20:41:09.658Z,19.19
2023-05-12T20:43:36.457Z,19.22
2023-05-12T20:46:04.243Z,19.22
2023-05-12T20:48:31.195Z,19.18
2023-05-12T20:50:57.713Z,18.93
2023-05-12T20:53:24.326Z,18.98
2023-05-12T20:55:51.358Z,19.10
2023-05-12T20:58:18.189Z,19.03
2023-05-12T21:00:44.716Z,19.04
2023-05-12T21:03:16.749Z,19.04
2023-05-12T21:05:47.646Z,18.83
2023-05-12T21:08:14.774Z,18.93
2023-05-12T21:10:41.407Z,18.93
2023-05-12T21:13:07.941Z,18.83
2023-05-12T21:15:35.302Z,18.90
2023-05-12T21:18:01.819Z,18.85
2023-05-12T21:20:28.724Z,18.80
2023-05-12T21:22:56.987Z,18.68
2023-05-12T21:25:23.903Z,18.87
2023-05-12T21:27:52.381Z,18.69
2023-05-12T21:30:19.742Z,18.66
2023-05-12T21:32:46.536Z,18.01
2023-05-12T21:35:13.293Z,18.44
2023-05-12T21:37:39.761Z,18.44
2023-05-12T21:40:07.111Z,18.14
2023-05-12T21:42:33.829Z,18.07
2023-05-12T21:45:00.413Z,18.28
2023-05-12T21:47:26.972Z,18.26
2023-05-12T21:49:56.847Z,17.89
2023-05-12T21:52:23.727Z,18.05
2023-05-12T21:54:50.269Z,18.21
2023-05-12T21:57:16.978Z,18.05
2023-05-12T21:59:43.928Z,17.95
2023-05-12T22:02:10.774Z,17.70
2023-05-12T22:04:37.987Z,17.92
2023-05-12T22:07:04.702Z,17.77
2023-05-12T22:09:31.549Z,17.63
2023-05-12T22:11:58.180Z,17.95
2023-05-12T22:14:24.830Z,17.91
2023-05-12T22:16:51.464Z,18.01
2023-05-12T22:19:19.530Z,17.65
2023-05-12T22:21:46.143Z,17.97
2023-05-12T22:24:12.863Z,18.07
2023-05-12T22:26:39.490Z,17.51
2023-05-12T22:29:06.068Z,17.78
2023-05-12T22:31:33.112Z,17.83
2023-05-12T22:33:59.640Z,17.84
2023-05-12T22:36:26.502Z,17.80
2023-05-12T22:38:54.185Z,17.79
2023-05-12T22:41:20.690Z,17.57
2023-05-12T22:43:50.786Z,17.46
2023-05-12T22:46:17.621Z,17.30
2023-05-12T22:48:44.262Z,17.35
2023-05-12T22:51:10.696Z,17.39
2023-05-12T22:53:37.310Z,17.53
2023-05-12T22:56:03.848Z,17.41
2023-05-12T22:58:30.743Z,17.44
2023-05-12T23:00:57.337Z,17.37
2023-05-12T23:03:24.238Z,17.49
2023-05-12T23:05:50.935Z,17.02
2023-05-12T23:08:17.627Z,17.01
2023-05-12T23:10:44.463Z,16.98
2023-05-12T23:13:10.975Z,17.09
2023-05-12T23:15:37.693Z,17.09
2023-05-12T23:18:05.789Z,17.02
2023-05-12T23:20:32.624Z,16.84
2023-05-12T23:22:59.173Z,17.34
2023-05-12T23:25:26.219Z,17.11
2023-05-12T23:27:52.840Z,17.34
2023-05-12T23:30:20.939Z,17.12
2023-05-12T23:32:50.479Z,16.91
2023-05-12T23:35:17.304Z,16.87
2023-05-12T23:37:43.874Z,17.10
2023-05-12T23:40:10.973Z,17.19
2023-05-12T23:42:37.580Z,17.17
2023-05-12T23:45:04.596Z,16.96
2023-05-12T23:47:31.671Z,17.24
2023-05-12T23:49:58.179Z,17.06
2023-05-12T23:52:25.916Z,17.21
2023-05-12T23:54:53.059Z,17.09
2023-05-12T23:57:19.621Z,17.08
2023-05-12T23:59:46.863Z,16.88
